Opp, AL

5:47 AM CDT on July 28, 2014 (GMT -0500)
Opp Cablevision Headend (KALOPP11) Elev 327 ft | 31.29 °N, 86.26 °W | Change Station

Current weather conditions updated 2 seconds ago

Clear
Clear
77.0 °F
Feels Like 78 °F
N
1.0
Wind Variable Wind from WSW
Gusts 3.0 mph

Today is forecast to be nearly the same temperature as yesterday. Afternoon thunderstorms.

Today
High -- | Low -- °F
--% Chance of Precip.
Yesterday
High -- | Low -- °F
Precip. -- in
5:59 AM 7:43 PM
New Moon, 2% visible
Pressure 29.99 in
Visibility 10.0 miles
Clouds Clear
Heat Index 78 °F
Dew Point 76 °F
Humidity 95%
Rainfall 0.00 in
Snow Depth Not available.
UV 0 out of 12
Pollen 5.00 out of 12
Air Quality Not available.
Flu Activity Not available.
METAR K79J 280956Z AUTO 29004KT 10SM CLR 27/24 A3001 RMK AO2 SLP155 T02720244

More Conditions Fewer Conditions

Pressure 29.99 in
Visibility 10.0 miles
Clouds Clear
Heat Index 78 °F
Dew Point 76 °F
Humidity 95%
Rainfall 0.00 in
Snow Depth Not available.
UV 0 out of 12
Pollen 5.00 out of 12
Air Quality Not available.
Flu Activity Not available.
METAR K79J 280956Z AUTO 29004KT 10SM CLR 27/24 A3001 RMK AO2 SLP155 T02720244

More Conditions Fewer Conditions

10-Day Weather Forecast

Almanac

Astronomy

Jul. 28, 2014 Rise Set
Actual Time 5:59 AM CDT 7:43 PM CDT
Civil Twilight 5:32 AM CDT 8:10 PM CDT
Nautical Twilight 5:00 AM CDT 8:42 PM CDT
Astronomical Twilight 4:26 AM CDT 9:15 PM CDT
Moon 7:30 AM CDT 8:36 PM CDT
Length of Visible Light 14h 37m
Length of Day
13h 44m
Tomorrow will be 1m 20s shorter.
New Moon, 2% of the Moon is Illuminated
Today
New Moon
Aug 3
First Quarter
Aug 10
Full
Aug 17
Last Quarter
Aug 25
New

Today's Extremes

State Highs State Lows

Community

WunderPhotos

Upload Photos

1,738,295 photos uploaded!

Nearby

Snow Depth

Station Depth Elevation
No new snow has been reported.

Earthquake Activity

City Distance Mag. Time & Date
No recent earthquake activity has been reported nearby.
Minimum magnitude displayed is 2.5.

Coastal Water Temperatures

Place Temperature
No Stations Reporting

Nearby Weather Stations

Station Location Temp. Heat Index Dew Point Humidity Wind Precip. Elev Updated Type
Opp Cablevision Headend, Opp, AL 77.0 °F 78 °F 76 °F 95% WSW  at  1.0 mph 0.00 in / hr 327 ft 5:47 AM CDT Rapid Fire
299/84 Bypass - Hub Brown Rd, Opp, AL 75.7 °F 74 °F 75 °F 98% SSW  at  0.0 mph 0.00 in / hr 280 ft 5:43 AM CDT Normal
Heath, AL 75.0 °F 72 °F 75 °F 99% WNW  at  0.0 mph 0.00 in / hr 367 ft 5:47 AM CDT Rapid Fire
Chigger Hill off Moore Rd, Andalusia, AL 77.0 °F 78 °F 73 °F 87% WNW  at  0.0 mph 0.00 in / hr 280 ft 5:46 AM CDT Rapid Fire
Shiloh Community, Elba, AL 76.6 °F 78 °F 72 °F 86% WSW  at  0.0 mph 0.00 in / hr 400 ft 5:46 AM CDT Rapid Fire
Red Level, Red Level, AL 75.2 °F 73 °F 75 °F 98% ESE  at  0.0 mph 0.00 in / hr 345 ft 5:39 AM CDT Normal
Willow Bend, Enterprise, AL 77.4 °F 79 °F 74 °F 88% West  at  0.0 mph 0.00 in / hr 353 ft 5:47 AM CDT Rapid Fire

Show More Stations Show Fewer Stations